Time;durP1;ratioP1;P1;durP2;ratioP2;P2;SDS_P1;SDS_P2;PMS_P1;PMS_P2;Temp;Humidity;BMP_temperature;BMP_pressure;BME280_temperature;BME280_humidity;BME280_pressure;Samples;Min_cycle;Max_cycle;Signal;HPM_P1;HPM_P2
2023/07/28 00:00:13;;;;;;;6.70;2.90;;;;;;;25.46;53.03;100911.91;4921706;28;20057;-80
2023/07/28 00:02:40;;;;;;;6.85;2.97;;;;;;;25.41;52.65;100912.59;4930035;28;20062;-80
2023/07/28 00:05:11;;;;;;;3.63;2.60;;;;;;;25.22;52.65;100871.03;4922189;28;20530;-82
2023/07/28 00:07:38;;;;;;;7.80;2.90;;;;;;;25.45;52.55;100891.25;4975972;28;20490;-79
2023/07/28 00:10:10;;;;;;;9.65;3.03;;;;;;;25.37;51.89;100878.81;4950498;28;20622;-80
2023/07/28 00:12:41;;;;;;;9.23;3.40;;;;;;;25.55;50.84;100886.91;4962347;28;20058;-79
2023/07/28 00:15:08;;;;;;;6.57;2.95;;;;;;;25.33;50.15;100875.69;4960115;28;20057;-80
2023/07/28 00:17:35;;;;;;;7.57;3.00;;;;;;;25.27;50.79;100890.19;4944876;28;20050;-79
2023/07/28 00:20:03;;;;;;;8.50;2.97;;;;;;;25.22;52.35;100895.50;4967862;28;20436;-79
2023/07/28 00:22:35;;;;;;;6.82;2.47;;;;;;;25.24;51.75;100879.75;4956850;28;20365;-81
2023/07/28 00:25:09;;;;;;;14.32;3.13;;;;;;;24.98;52.68;100825.72;4947996;28;20042;-81
2023/07/28 00:27:35;;;;;;;12.43;3.78;;;;;;;25.08;51.78;100837.72;4964179;28;20112;-81
2023/07/28 00:30:02;;;;;;;38.85;6.35;;;;;;;25.35;52.01;100862.72;4983615;28;20050;-79
2023/07/28 00:32:29;;;;;;;8.95;3.20;;;;;;;25.49;52.91;100848.97;4971606;28;20409;-79
2023/07/28 00:34:56;;;;;;;9.02;3.20;;;;;;;25.68;52.98;100864.19;4953396;28;20042;-78
2023/07/28 00:37:25;;;;;;;8.35;3.42;;;;;;;25.53;49.92;100855.59;4920671;28;20047;-78
2023/07/28 00:39:52;;;;;;;7.68;2.85;;;;;;;25.57;48.92;100838.59;4931885;28;20517;-79
2023/07/28 00:42:19;;;;;;;5.75;3.20;;;;;;;25.46;49.66;100849.41;4928343;28;20455;-78
2023/07/28 00:44:45;;;;;;;13.57;4.78;;;;;;;25.30;49.40;100853.59;4928349;28;20365;-78
2023/07/28 00:47:13;;;;;;;11.55;4.47;;;;;;;25.15;49.67;100864.81;4940173;28;20446;-79
2023/07/28 00:49:47;;;;;;;10.80;3.75;;;;;;;25.05;49.71;100848.19;4937766;28;20046;-79
2023/07/28 00:52:14;;;;;;;9.25;3.30;;;;;;;25.16;51.90;100844.72;4908213;28;20050;-79
2023/07/28 00:54:45;;;;;;;8.07;3.13;;;;;;;25.41;52.20;100846.56;4974948;28;20058;-80
2023/07/28 00:57:18;;;;;;;8.02;3.03;;;;;;;25.46;51.67;100841.25;4919915;28;20227;-81
2023/07/28 00:59:50;;;;;;;5.50;2.88;;;;;;;25.28;49.22;100794.03;4936663;28;20182;-81
2023/07/28 01:02:18;;;;;;;7.03;3.10;;;;;;;25.46;47.46;100838.53;4946179;28;20459;-81
2023/07/28 01:04:47;;;;;;;6.10;3.10;;;;;;;25.39;47.90;100833.22;4934427;28;20054;-81
2023/07/28 01:07:37;;;;;;;8.05;3.20;;;;;;;25.64;49.67;100862.16;4903167;28;20236;-80
2023/07/28 01:10:30;;;;;;;8.90;3.08;;;;;;;25.62;46.91;100837.91;4944816;28;20335;-79
2023/07/28 01:12:56;;;;;;;6.97;2.92;;;;;;;25.52;47.86;100826.75;4961923;28;20060;-79
2023/07/28 01:15:26;;;;;;;7.40;3.60;;;;;;;25.57;48.03;100849.47;4961738;28;20053;-82
2023/07/28 01:17:53;;;;;;;9.23;3.20;;;;;;;25.48;46.17;100831.00;4950610;28;20092;-81
2023/07/28 01:20:27;;;;;;;8.98;3.60;;;;;;;25.48;46.81;100842.69;4936762;28;20046;-80
2023/07/28 01:23:02;;;;;;;6.55;3.40;;;;;;;25.40;45.16;100850.34;4957830;28;20387;-81
2023/07/28 01:25:33;;;;;;;11.25;3.65;;;;;;;25.49;48.75;100848.97;4966852;28;20064;-79
2023/07/28 01:28:04;;;;;;;8.43;2.45;;;;;;;25.23;46.07;100823.78;4917792;28;20233;-80
2023/07/28 01:30:31;;;;;;;10.15;3.15;;;;;;;25.40;45.87;100850.34;4935213;28;20459;-80
2023/07/28 01:33:01;;;;;;;7.63;3.17;;;;;;;25.06;47.25;100788.22;4903095;28;20597;-81
2023/07/28 01:35:27;;;;;;;7.97;3.40;;;;;;;25.19;44.55;100828.00;4946405;28;20406;-78
2023/07/28 01:37:56;;;;;;;9.85;3.08;;;;;;;25.19;46.54;100828.00;4933934;28;20054;-80
2023/07/28 01:40:22;;;;;;;6.80;3.28;;;;;;;25.12;44.68;100843.53;4939076;28;20054;-80
2023/07/28 01:42:49;;;;;;;7.72;3.45;;;;;;;25.03;48.49;100836.75;4913028;28;20049;-79
2023/07/28 01:45:19;;;;;;;7.05;3.53;;;;;;;24.91;48.10;100825.81;4928956;28;20078;-81
2023/07/28 01:47:46;;;;;;;5.57;3.13;;;;;;;24.93;46.29;100818.28;4931653;28;20327;-80
2023/07/28 01:50:18;;;;;;;4.57;2.90;;;;;;;24.93;47.77;100824.53;4930099;28;20046;-80
2023/07/28 01:52:49;;;;;;;7.60;3.25;;;;;;;24.97;46.48;100814.03;4940922;28;20046;-79
2023/07/28 01:55:16;;;;;;;7.40;3.08;;;;;;;24.94;48.79;100812.59;4958774;28;20609;-80
2023/07/28 01:57:59;;;;;;;6.32;2.90;;;;;;;25.13;48.86;100834.34;4931938;28;20086;-82
2023/07/28 02:00:26;;;;;;;13.70;3.30;;;;;;;25.12;48.64;100810.91;4924559;28;20069;-79
2023/07/28 02:03:01;;;;;;;10.10;2.90;;;;;;;25.29;48.37;100828.31;4935789;28;20054;-81
2023/07/28 02:05:29;;;;;;;10.13;3.20;;;;;;;25.43;49.97;100823.53;4957281;28;20046;-81
2023/07/28 02:07:56;;;;;;;7.20;3.35;;;;;;;25.41;46.20;100830.25;4952223;28;20060;-78
2023/07/28 02:10:23;;;;;;;7.25;2.92;;;;;;;25.47;47.77;100818.47;4964800;28;20066;-80
2023/07/28 02:12:51;;;;;;;4.15;3.13;;;;;;;26.13;48.65;100843.88;4962156;28;20058;-78
2023/07/28 02:15:18;;;;;;;5.57;3.15;;;;;;;25.94;45.88;100845.84;4944940;28;20683;-79
2023/07/28 02:17:45;;;;;;;6.50;3.10;;;;;;;25.84;44.02;100854.53;4967537;28;20620;-80
2023/07/28 02:20:15;;;;;;;14.93;3.72;;;;;;;25.53;44.33;100867.28;4947170;28;20339;-80
2023/07/28 02:22:42;;;;;;;6.85;2.90;;;;;;;25.25;44.76;100865.16;4951173;28;20057;-79
2023/07/28 02:25:10;;;;;;;5.95;2.72;;;;;;;25.54;48.17;100862.69;4940617;28;20416;-80
2023/07/28 02:27:37;;;;;;;8.25;3.33;;;;;;;25.23;45.00;100855.56;4954934;28;20459;-80
2023/07/28 02:30:06;;;;;;;8.50;3.60;;;;;;;25.11;45.37;100847.31;4949159;28;20417;-80
2023/07/28 02:32:34;;;;;;;6.80;3.80;;;;;;;25.18;46.86;100837.22;4920949;28;20579;-80
2023/07/28 02:35:01;;;;;;;15.50;4.45;;;;;;;25.30;48.59;100840.00;4928044;28;20054;-79
2023/07/28 02:37:33;;;;;;;5.57;3.10;;;;;;;25.42;47.53;100845.50;4940001;28;20125;-80
2023/07/28 02:40:04;;;;;;;7.35;3.72;;;;;;;25.33;45.90;100844.97;4925017;28;20042;-78
2023/07/28 02:42:33;;;;;;;10.20;3.22;;;;;;;25.18;48.62;100820.09;4927363;28;20129;-79
2023/07/28 02:45:00;;;;;;;6.47;3.08;;;;;;;25.54;49.01;100857.25;4926707;28;20411;-79
2023/07/28 02:47:28;;;;;;;7.40;3.33;;;;;;;25.46;44.72;100852.94;4902394;28;20422;-79
2023/07/28 02:49:55;;;;;;;7.10;3.55;;;;;;;25.48;47.07;100855.44;4894864;28;20571;-81
2023/07/28 02:52:22;;;;;;;8.70;3.13;;;;;;;25.83;48.34;100835.72;4928119;28;20188;-80
2023/07/28 02:54:50;;;;;;;6.03;3.40;;;;;;;25.65;44.98;100845.59;4945333;28;20052;-80
2023/07/28 02:57:16;;;;;;;5.93;3.10;;;;;;;25.44;46.81;100835.22;4955017;28;20046;-80
2023/07/28 02:59:48;;;;;;;9.27;2.90;;;;;;;25.45;45.89;100864.91;4931339;28;20134;-79
2023/07/28 03:02:18;;;;;;;7.57;3.30;;;;;;;25.45;47.14;100867.59;4927460;28;20074;-80
2023/07/28 03:04:44;;;;;;;5.85;3.28;;;;;;;25.18;45.25;100849.97;4916218;28;20367;-79
2023/07/28 03:07:16;;;;;;;6.75;3.47;;;;;;;24.55;44.31;100770.44;4931630;28;20076;-80
2023/07/28 03:09:44;;;;;;;6.60;3.40;;;;;;;24.48;44.43;100794.09;4942284;28;20258;-80
2023/07/28 03:12:11;;;;;;;10.90;3.28;;;;;;;24.61;44.63;100859.09;4918499;28;20045;-81
2023/07/28 03:14:38;;;;;;;10.70;3.40;;;;;;;24.41;45.21;100845.66;4930022;28;20104;-79
2023/07/28 03:17:05;;;;;;;9.07;3.30;;;;;;;24.48;45.71;100873.59;4926329;28;20129;-76
2023/07/28 03:19:32;;;;;;;8.13;3.30;;;;;;;24.56;46.32;100871.66;4912020;28;20518;-79
2023/07/28 03:22:02;;;;;;;7.53;3.13;;;;;;;24.67;45.66;100873.66;4927682;28;20383;-80
2023/07/28 03:24:30;;;;;;;9.43;3.30;;;;;;;24.50;47.18;100847.09;4937071;28;20487;-79
2023/07/28 03:26:57;;;;;;;8.02;3.00;;;;;;;24.39;47.16;100815.22;4934428;28;20058;-79
2023/07/28 03:29:26;;;;;;;5.35;3.28;;;;;;;24.57;45.59;100847.03;4928838;28;20133;-80
2023/07/28 03:31:53;;;;;;;6.72;3.17;;;;;;;24.39;44.38;100815.22;4945403;28;20287;-79
2023/07/28 03:34:29;;;;;;;8.20;3.45;;;;;;;24.46;46.61;100836.91;4929413;28;20310;-80
2023/07/28 03:36:56;;;;;;;5.88;3.42;;;;;;;24.41;44.11;100837.53;4940302;28;20049;-79
2023/07/28 03:39:27;;;;;;;9.13;3.13;;;;;;;24.09;44.97;100810.47;4933254;28;20383;-81
2023/07/28 03:42:00;;;;;;;8.00;3.40;;;;;;;24.23;45.18;100864.63;4926728;28;20054;-81
2023/07/28 03:44:27;;;;;;;9.43;3.20;;;;;;;23.85;45.42;100830.25;4915496;28;20522;-80
2023/07/28 03:46:56;;;;;;;4.68;3.13;;;;;;;23.84;45.78;100855.69;4905509;28;20050;-81
2023/07/28 03:49:23;;;;;;;6.60;3.58;;;;;;;23.72;47.00;100831.13;4906182;28;20388;-79
2023/07/28 03:51:55;;;;;;;12.98;3.78;;;;;;;23.74;46.74;100825.50;4908780;28;20045;-80
2023/07/28 03:54:27;;;;;;;5.30;3.20;;;;;;;23.86;48.60;100845.44;4918372;28;20058;-81
2023/07/28 03:57:00;;;;;;;11.20;3.60;;;;;;;24.02;49.47;100842.22;4934757;28;20199;-79
2023/07/28 03:59:26;;;;;;;10.30;3.60;;;;;;;24.21;49.53;100842.31;4906154;28;20050;-80
2023/07/28 04:01:57;;;;;;;7.03;3.58;;;;;;;24.27;45.77;100873.94;4927246;28;20134;-79
2023/07/28 04:04:29;;;;;;;7.70;3.25;;;;;;;24.59;48.02;100866.66;4931983;28;20482;-80
2023/07/28 04:07:03;;;;;;;5.80;3.28;;;;;;;24.34;45.40;100847.59;4942276;28;20064;-79
2023/07/28 04:09:30;;;;;;;7.78;3.60;;;;;;;24.27;45.59;100841.41;4943571;28;20456;-78
2023/07/28 04:11:57;;;;;;;6.35;3.25;;;;;;;24.36;45.80;100871.81;4935437;28;20058;-81
2023/07/28 04:14:23;;;;;;;7.78;3.53;;;;;;;24.48;45.35;100886.34;4926226;28;20230;-79
2023/07/28 04:16:55;;;;;;;10.32;3.75;;;;;;;24.17;45.34;100803.09;4884504;28;20413;-80
2023/07/28 04:19:33;;;;;;;9.85;3.22;;;;;;;24.30;46.56;100846.41;4891344;28;20349;-79
2023/07/28 04:22:00;;;;;;;7.75;3.70;;;;;;;24.45;45.40;100889.47;4894133;28;20277;-80
2023/07/28 04:24:27;;;;;;;5.60;2.92;;;;;;;24.31;45.79;100876.00;4979225;28;20219;-79
2023/07/28 04:26:54;;;;;;;9.82;3.60;;;;;;;24.47;48.48;100885.53;4941708;28;20557;-78
2023/07/28 04:29:21;;;;;;;9.07;3.88;;;;;;;24.46;45.28;100872.16;4926395;28;20145;-79
2023/07/28 04:31:48;;;;;;;28.67;6.18;;;;;;;24.52;46.16;100861.25;4895346;28;20260;-80
2023/07/28 04:34:19;;;;;;;7.55;3.38;;;;;;;24.42;45.28;100850.06;4871218;28;20055;-80
2023/07/28 04:36:56;;;;;;;10.25;3.58;;;;;;;24.33;44.80;100873.09;4886454;28;20495;-80
2023/07/28 04:39:29;;;;;;;11.27;4.07;;;;;;;24.20;45.36;100889.44;4915857;28;20077;-79
2023/07/28 04:42:01;;;;;;;8.00;3.75;;;;;;;23.98;45.32;100872.69;4939934;28;20186;-78
2023/07/28 04:44:33;;;;;;;12.10;4.35;;;;;;;23.95;45.74;100882.09;4973605;28;20116;-79
2023/07/28 04:47:00;;;;;;;6.80;3.15;;;;;;;23.78;46.45;100864.69;4950535;28;20052;-79
2023/07/28 04:49:30;;;;;;;11.40;3.47;;;;;;;23.81;46.12;100873.22;4942116;28;20428;-79
2023/07/28 04:51:57;;;;;;;9.93;3.45;;;;;;;23.94;46.82;100891.28;4950449;28;20129;-79
2023/07/28 04:54:23;;;;;;;11.63;4.00;;;;;;;23.90;45.90;100879.22;4972609;28;20401;-80
2023/07/28 04:56:52;;;;;;;8.73;3.42;;;;;;;23.75;46.10;100859.72;4962517;28;20415;-79
2023/07/28 04:59:19;;;;;;;9.30;3.75;;;;;;;23.91;46.09;100888.16;4921705;28;20561;-79
2023/07/28 05:01:46;;;;;;;10.30;4.18;;;;;;;23.81;46.08;100903.06;4936650;28;20158;-80
2023/07/28 05:04:13;;;;;;;8.35;4.05;;;;;;;23.72;46.56;100889.94;4955635;28;20121;-81
2023/07/28 05:06:40;;;;;;;10.05;3.60;;;;;;;23.32;47.37;100839.44;4953681;28;20418;-78
2023/07/28 05:09:06;;;;;;;4.85;3.17;;;;;;;23.25;48.76;100828.66;4971441;28;20290;-79
2023/07/28 05:11:38;;;;;;;6.65;3.65;;;;;;;23.37;47.77;100836.91;4943006;28;20062;-82
2023/07/28 05:14:09;;;;;;;15.05;4.10;;;;;;;23.73;46.36;100887.03;4961249;28;20405;-80
2023/07/28 05:16:36;;;;;;;8.98;3.83;;;;;;;23.72;46.58;100889.94;4954292;28;20568;-78
2023/07/28 05:19:07;;;;;;;12.95;4.72;;;;;;;23.37;47.05;100842.34;4961809;28;20071;-80
2023/07/28 05:21:34;;;;;;;11.80;4.38;;;;;;;23.74;48.38;100895.97;4949932;28;20053;-77
2023/07/28 05:24:01;;;;;;;18.88;4.32;;;;;;;24.02;46.89;100904.59;4934793;28;20041;-78
2023/07/28 05:26:28;;;;;;;7.95;3.55;;;;;;;23.82;47.01;100887.63;4946285;28;20297;-79
2023/07/28 05:28:55;;;;;;;8.32;3.83;;;;;;;23.99;48.72;100915.88;4953163;28;20056;-79
2023/07/28 05:31:21;;;;;;;9.90;3.60;;;;;;;24.01;47.58;100904.81;4959683;28;20305;-79
2023/07/28 05:33:49;;;;;;;7.85;3.33;;;;;;;23.87;46.78;100895.94;4952142;28;20491;-79
2023/07/28 05:36:16;;;;;;;8.90;4.07;;;;;;;23.81;47.17;100903.06;4931081;28;20378;-78
2023/07/28 05:38:43;;;;;;;10.98;4.65;;;;;;;23.96;47.84;100910.91;4919913;28;20533;-80
2023/07/28 05:41:10;;;;;;;12.93;4.25;;;;;;;23.88;48.45;100903.84;4893364;28;20267;-82
2023/07/28 05:43:41;;;;;;;9.73;3.80;;;;;;;24.04;47.39;100923.34;4896875;28;20487;-79
2023/07/28 05:46:11;;;;;;;16.17;4.30;;;;;;;24.20;47.56;100927.41;4931177;28;20494;-80
2023/07/28 05:48:40;;;;;;;7.75;3.35;;;;;;;24.27;48.80;100912.78;4908442;28;20051;-79
2023/07/28 05:51:07;;;;;;;12.15;3.72;;;;;;;24.11;47.83;100848.22;4921955;28;20318;-80
2023/07/28 05:53:35;;;;;;;10.10;3.75;;;;;;;24.36;46.21;100878.06;4946251;28;20050;-80
2023/07/28 05:56:05;;;;;;;7.78;3.83;;;;;;;24.63;45.91;100922.13;4944477;28;20045;-80
2023/07/28 05:58:32;;;;;;;13.80;4.25;;;;;;;24.84;44.98;100929.06;4926726;28;20110;-78
2023/07/28 06:00:58;;;;;;;8.93;3.85;;;;;;;24.08;45.45;100803.38;4922591;28;20465;-78
2023/07/28 06:03:30;;;;;;;8.15;3.80;;;;;;;25.07;45.86;100922.13;4933103;28;20054;-80
2023/07/28 06:05:57;;;;;;;6.50;4.00;;;;;;;24.84;46.40;100906.50;4944937;28;20136;-80
2023/07/28 06:08:24;;;;;;;6.82;4.07;;;;;;;24.84;45.11;100920.91;4933922;28;20140;-78
2023/07/28 06:10:51;;;;;;;8.70;3.78;;;;;;;24.66;46.90;100899.13;4933551;28;20050;-80
2023/07/28 06:13:18;;;;;;;10.10;3.75;;;;;;;25.01;46.90;100942.06;4925582;28;20046;-79
2023/07/28 06:15:45;;;;;;;12.48;4.40;;;;;;;24.97;45.63;100932.69;4961041;28;20136;-77
2023/07/28 06:18:13;;;;;;;8.35;4.03;;;;;;;24.85;46.27;100941.56;4936941;28;20423;-80
2023/07/28 06:20:43;;;;;;;11.25;3.63;;;;;;;24.97;47.23;100938.94;4940283;28;20069;-78
2023/07/28 06:23:10;;;;;;;10.95;4.35;;;;;;;24.83;46.75;100949.13;4910469;28;20053;-80
2023/07/28 06:25:43;;;;;;;7.63;4.13;;;;;;;24.97;47.24;100949.81;4921001;28;20042;-79
2023/07/28 06:28:13;;;;;;;12.63;4.20;;;;;;;25.12;48.06;100955.75;4925259;28;20057;-79
2023/07/28 06:30:40;;;;;;;10.85;3.78;;;;;;;24.51;47.32;100840.59;4944484;28;20486;-78
2023/07/28 06:33:13;;;;;;;9.80;4.10;;;;;;;25.06;45.60;100934.06;4918085;28;20636;-80
2023/07/28 06:35:46;;;;;;;9.77;3.75;;;;;;;25.03;46.02;100958.97;4930611;28;20194;-80
2023/07/28 06:38:19;;;;;;;13.15;4.30;;;;;;;25.05;45.75;100954.13;4920048;28;20054;-79
2023/07/28 06:40:45;;;;;;;13.60;4.18;;;;;;;25.14;45.41;100961.75;4940858;28;20487;-80
2023/07/28 06:43:12;;;;;;;15.00;4.53;;;;;;;24.93;45.79;100956.75;4918041;28;20049;-80
2023/07/28 06:45:39;;;;;;;10.45;4.32;;;;;;;24.83;45.76;100921.13;4919517;28;20049;-81
2023/07/28 06:48:06;;;;;;;7.32;3.30;;;;;;;24.85;47.17;100936.13;4919999;28;20242;-79
2023/07/28 06:50:37;;;;;;;11.70;4.22;;;;;;;24.82;46.09;100952.88;4923280;28;20068;-78
2023/07/28 06:53:16;;;;;;;10.15;4.32;;;;;;;24.81;45.87;100951.22;4922082;28;20499;-80
2023/07/28 06:55:51;;;;;;;5.53;3.33;;;;;;;25.07;46.79;100954.72;4921174;28;20215;-80
2023/07/28 06:58:19;;;;;;;13.52;4.40;;;;;;;25.00;45.53;100935.81;4913684;28;20201;-78
2023/07/28 07:00:55;;;;;;;9.52;4.53;;;;;;;24.97;45.11;100943.56;4896826;28;20440;-79
2023/07/28 07:03:32;;;;;;;12.63;4.32;;;;;;;24.77;46.23;100930.16;4913401;28;20058;-78
2023/07/28 07:05:59;;;;;;;8.30;4.43;;;;;;;24.93;46.78;100933.16;4908898;28;20045;-77
2023/07/28 07:08:26;;;;;;;13.60;4.80;;;;;;;25.13;45.84;100960.09;4930182;28;20422;-79
2023/07/28 07:14:34;;;;;;;8.70;4.38;;;;;;;25.44;46.13;100987.41;4958818;28;20439;-79
2023/07/28 07:17:05;;;;;;;11.02;4.25;;;;;;;25.45;46.36;100989.91;4953439;28;20069;-79
2023/07/28 07:19:32;;;;;;;14.65;4.45;;;;;;;25.41;45.93;100968.84;4962838;28;20057;-78
2023/07/28 07:21:58;;;;;;;10.23;4.18;;;;;;;25.11;46.76;100912.50;4972059;28;20108;-79
2023/07/28 07:24:28;;;;;;;9.23;3.90;;;;;;;25.35;46.62;100946.94;4964223;28;20053;-79
2023/07/28 07:26:55;;;;;;;9.63;4.88;;;;;;;25.62;46.63;100973.00;4936181;28;20399;-78
2023/07/28 07:29:22;;;;;;;9.43;4.07;;;;;;;25.64;46.35;100960.84;4945964;28;20049;-77
2023/07/28 07:31:49;;;;;;;13.50;4.55;;;;;;;25.65;46.25;100962.50;4989490;28;20061;-79
2023/07/28 07:34:16;;;;;;;10.13;4.55;;;;;;;25.68;46.85;100981.09;4957088;28;20426;-77
2023/07/28 07:36:43;;;;;;;15.18;5.70;;;;;;;25.44;47.58;100954.78;4952910;28;20053;-79
2023/07/28 07:39:10;;;;;;;10.77;4.40;;;;;;;25.86;47.08;100980.28;4945953;28;20057;-78
2023/07/28 07:41:36;;;;;;;15.85;4.47;;;;;;;25.71;46.39;100939.03;4945266;28;20145;-80
2023/07/28 07:44:03;;;;;;;15.05;4.45;;;;;;;25.89;46.45;100959.94;4946362;28;20053;-80
2023/07/28 07:46:30;;;;;;;14.00;4.65;;;;;;;25.90;47.31;100975.19;4953497;28;20046;-78
2023/07/28 07:48:57;;;;;;;9.07;4.57;;;;;;;25.68;46.52;100939.47;4950184;28;20081;-78
2023/07/28 07:51:24;;;;;;;13.73;4.57;;;;;;;25.87;47.35;100975.66;4961016;28;20054;-79
2023/07/28 07:53:51;;;;;;;12.98;4.70;;;;;;;25.96;46.89;100963.41;4941003;28;20045;-78
2023/07/28 07:56:18;;;;;;;12.82;4.15;;;;;;;26.18;47.63;100970.00;4938434;28;20811;-78
2023/07/28 07:58:44;;;;;;;9.63;3.70;;;;;;;25.88;46.94;100936.53;4953340;28;20054;-80
2023/07/28 08:01:12;;;;;;;8.55;4.30;;;;;;;26.06;46.39;100973.75;4947730;28;20078;-79
2023/07/28 08:03:39;;;;;;;13.32;3.85;;;;;;;25.49;45.52;100887.03;4938882;28;20053;-79
2023/07/28 08:06:06;;;;;;;8.57;4.35;;;;;;;25.71;45.85;100928.97;4963150;28;20054;-77
2023/07/28 08:08:33;;;;;;;9.13;4.65;;;;;;;26.06;43.58;100974.56;4945593;28;20429;-78
2023/07/28 08:11:02;;;;;;;9.85;4.20;;;;;;;25.78;44.43;100973.22;4933847;28;20092;-79
2023/07/28 08:13:29;;;;;;;9.80;3.75;;;;;;;25.61;45.12;100980.34;4951611;28;20050;-79
2023/07/28 08:15:55;;;;;;;13.23;4.65;;;;;;;25.20;45.88;100919.34;4980663;28;20053;-81
2023/07/28 08:18:22;;;;;;;15.93;4.60;;;;;;;25.38;46.23;100972.84;4983764;28;20563;-79
2023/07/28 08:20:50;;;;;;;8.82;3.97;;;;;;;25.24;46.29;100961.28;4969852;28;20049;-81
2023/07/28 08:23:17;;;;;;;16.00;4.53;;;;;;;25.55;46.53;100989.38;4994476;28;20064;-80
2023/07/28 08:25:46;;;;;;;12.30;4.45;;;;;;;25.58;46.18;100961.75;4930376;28;20055;-79
2023/07/28 08:28:13;;;;;;;26.20;5.63;;;;;;;25.67;45.55;100982.13;4922810;28;20300;-80
2023/07/28 08:30:40;;;;;;;12.00;4.20;;;;;;;25.80;45.75;101000.16;4961501;28;20140;-79
2023/07/28 08:33:06;;;;;;;17.10;4.80;;;;;;;25.65;45.05;100948.91;4971801;28;20077;-79
2023/07/28 08:35:33;;;;;;;11.90;3.95;;;;;;;25.88;45.30;101001.81;4965185;28;20084;-79
2023/07/28 08:38:00;;;;;;;8.95;4.78;;;;;;;25.89;45.33;101003.47;4942364;28;20054;-80
2023/07/28 08:40:30;;;;;;;8.73;4.15;;;;;;;25.98;45.72;101021.13;4952149;28;20057;-79
2023/07/28 08:42:59;;;;;;;11.45;4.13;;;;;;;26.03;46.28;101007.66;4952684;28;20191;-80
2023/07/28 08:45:26;;;;;;;14.10;3.95;;;;;;;25.84;45.81;101008.72;4942783;28;20659;-78
2023/07/28 08:47:53;;;;;;;10.43;4.10;;;;;;;26.00;45.98;101008.13;4914688;28;20464;-76
2023/07/28 08:50:20;;;;;;;8.00;3.78;;;;;;;25.99;46.32;100996.41;4942607;28;20168;-77
2023/07/28 08:52:50;;;;;;;9.60;4.20;;;;;;;25.70;45.79;100959.91;4961455;28;20045;-79
2023/07/28 08:55:20;;;;;;;17.25;4.53;;;;;;;25.93;46.42;101015.53;4934902;28;20054;-78
2023/07/28 08:57:47;;;;;;;10.75;4.75;;;;;;;26.15;45.81;101019.44;4937677;28;20751;-80
2023/07/28 09:00:16;;;;;;;23.40;5.78;;;;;;;26.18;45.90;101016.25;4956314;28;20081;-79
2023/07/28 09:02:43;;;;;;;11.50;4.10;;;;;;;25.96;44.68;100998.75;4938904;28;20074;-78
2023/07/28 09:05:20;;;;;;;15.32;4.90;;;;;;;25.55;45.75;100954.88;4965065;28;20478;-79
2023/07/28 09:07:51;;;;;;;14.30;4.82;;;;;;;26.03;45.21;101015.00;4919095;28;20054;-80
2023/07/28 09:10:19;;;;;;;;;;;;;;;26.17;45.69;101028.22;4961877;28;20064;-79
2023/07/28 09:12:48;;;;;;;12.30;5.10;;;;;;;26.16;45.21;101004.75;4955848;28;19922;-79
2023/07/28 09:15:17;;;;;;;16.35;5.20;;;;;;;26.37;45.20;101025.22;4950240;28;20077;-78
2023/07/28 09:17:44;;;;;;;10.95;4.63;;;;;;;26.04;45.62;100971.22;4952941;28;20046;-79
2023/07/28 09:20:16;;;;;;;14.60;4.13;;;;;;;26.64;45.56;101017.50;4967235;28;20046;-78
2023/07/28 09:22:43;;;;;;;;;;;;;;;26.57;44.71;101029.56;4947218;28;20422;-80
2023/07/28 09:25:17;;;;;;;11.93;4.30;;;;;;;26.76;45.30;101016.72;4950621;28;19933;-80
2023/07/28 09:27:54;;;;;;;9.45;5.28;;;;;;;27.10;44.05;101023.28;4954032;28;20043;-77
2023/07/28 09:30:24;;;;;;;14.48;5.25;;;;;;;27.11;44.13;101021.38;4930614;28;20469;-80
2023/07/28 09:32:54;;;;;;;9.63;4.65;;;;;;;27.08;42.21;101003.59;4950713;28;20050;-79
2023/07/28 09:35:22;;;;;;;16.05;4.53;;;;;;;27.07;42.87;101008.22;4918443;28;20047;-79
2023/07/28 09:37:52;;;;;;;15.27;5.45;;;;;;;27.13;42.58;101009.16;4929506;28;20435;-78
2023/07/28 09:40:21;;;;;;;8.38;4.60;;;;;;;26.95;43.34;100961.06;4898664;28;20569;-78
2023/07/28 09:42:54;;;;;;;12.93;4.97;;;;;;;27.37;42.79;101006.47;4902572;28;20195;-78
2023/07/28 09:45:23;;;;;;;10.02;4.50;;;;;;;27.38;43.12;100998.06;4922004;28;20784;-78
2023/07/28 09:47:58;;;;;;;12.77;4.50;;;;;;;27.37;42.85;100963.69;4938833;28;20073;-78
2023/07/28 09:50:27;;;;;;;7.38;5.05;;;;;;;27.92;41.43;101003.31;4947444;28;20078;-78
2023/07/28 09:53:01;;;;;;;7.50;4.85;;;;;;;27.96;40.69;100988.09;4947557;28;20077;-79
2023/07/28 09:55:31;;;;;;;17.25;5.50;;;;;;;27.98;40.72;100938.75;4949993;28;20490;-76
2023/07/28 09:58:02;;;;;;;;;;;;;;;28.22;40.22;100991.34;4951799;28;20319;-77
2023/07/28 10:00:29;;;;;;;11.70;4.22;;;;;;;28.17;40.09;100945.66;4954506;28;19938;-78
2023/07/28 10:02:57;;;;;;;13.18;4.10;;;;;;;28.25;42.49;100980.75;4943059;28;20146;-79
2023/07/28 10:05:25;;;;;;;7.07;4.28;;;;;;;28.08;40.88;100980.69;4968757;28;20073;-78
2023/07/28 10:07:52;;;;;;;9.43;4.10;;;;;;;28.15;40.04;100986.03;4954524;28;20479;-78
2023/07/28 10:10:20;;;;;;;7.97;3.97;;;;;;;28.00;41.66;100974.81;4926565;28;20081;-79
2023/07/28 10:12:51;;;;;;;13.38;4.05;;;;;;;28.20;41.34;100988.03;4918734;28;20430;-79
2023/07/28 10:15:28;;;;;;;15.35;4.40;;;;;;;28.26;39.93;100979.69;4941232;28;20082;-79
2023/07/28 10:17:59;;;;;;;15.73;4.85;;;;;;;28.17;41.55;100964.78;4927435;28;20046;-78
2023/07/28 10:20:28;;;;;;;12.73;4.82;;;;;;;28.34;41.54;100982.00;4948987;28;20058;-78
2023/07/28 10:23:13;;;;;;;14.27;5.03;;;;;;;28.21;40.39;100968.69;4920800;28;20066;-79
2023/07/28 10:25:41;;;;;;;12.18;4.57;;;;;;;28.12;41.85;100953.78;4944856;28;20148;-78
2023/07/28 10:28:28;;;;;;;9.30;4.38;;;;;;;27.99;42.38;100946.72;4947724;28;20065;-79
2023/07/28 10:30:55;;;;;;;19.00;5.25;;;;;;;28.21;41.49;100956.94;4954193;28;20058;-78
2023/07/28 10:33:38;;;;;;;12.90;4.82;;;;;;;28.41;41.68;100972.84;4945368;28;20446;-80
2023/07/28 10:36:21;;;;;;;13.07;5.13;;;;;;;28.51;42.09;100941.09;4931168;28;20415;-79
2023/07/28 10:39:14;;;;;;;12.00;4.78;;;;;;;28.46;40.09;100915.63;4947659;28;20078;-79
2023/07/28 10:42:08;;;;;;;13.30;5.47;;;;;;;28.81;39.92;100980.09;4948856;28;20344;-79
2023/07/28 10:44:38;;;;;;;14.52;5.30;;;;;;;28.76;40.36;100978.97;4955370;28;20060;-78
2023/07/28 10:47:11;;;;;;;7.47;4.10;;;;;;;28.84;40.79;100966.78;4930322;28;20054;-79
2023/07/28 10:49:37;;;;;;;19.35;4.70;;;;;;;29.00;39.83;100975.19;4944836;28;20046;-79
2023/07/28 10:52:04;;;;;;;10.93;5.15;;;;;;;29.04;39.80;100976.38;4943059;28;20528;-78
2023/07/28 10:54:31;;;;;;;11.93;5.70;;;;;;;29.08;39.41;100963.88;4945866;28;20060;-79
2023/07/28 10:57:03;;;;;;;17.15;4.00;;;;;;;29.32;40.38;100983.63;4952092;28;20053;-78
2023/07/28 10:59:31;;;;;;;15.32;4.82;;;;;;;29.27;38.26;100967.16;4934267;28;20066;-78
2023/07/28 11:01:58;;;;;;;9.32;3.85;;;;;;;28.90;39.37;100904.84;4939431;28;20474;-78
2023/07/28 11:04:25;;;;;;;12.23;5.03;;;;;;;29.21;39.52;100938.94;4940558;28;20050;-79
2023/07/28 11:06:52;;;;;;;7.15;3.88;;;;;;;29.52;39.73;100944.81;4962762;28;20516;-77
2023/07/28 11:09:22;;;;;;;11.25;5.15;;;;;;;29.56;39.28;100957.69;4949841;28;20057;-78
2023/07/28 11:11:50;;;;;;;10.13;4.10;;;;;;;29.61;39.43;100949.56;4944668;28;20137;-79
2023/07/28 11:14:17;;;;;;;11.85;4.95;;;;;;;29.63;39.14;100932.06;4963350;28;20077;-81
2023/07/28 11:16:47;;;;;;;18.83;4.88;;;;;;;29.65;37.84;100914.31;4971905;28;20133;-78
2023/07/28 11:19:19;;;;;;;15.57;4.90;;;;;;;30.04;36.97;100953.34;4927329;28;20184;-79
2023/07/28 11:21:51;;;;;;;13.88;5.10;;;;;;;29.91;38.52;100942.81;4915039;28;20162;-78
2023/07/28 11:24:19;;;;;;;14.45;4.32;;;;;;;30.24;37.10;100943.69;4932946;28;20089;-78
2023/07/28 11:26:46;;;;;;;11.32;4.90;;;;;;;30.29;37.15;100943.75;4964665;28;20338;-80
2023/07/28 11:29:18;;;;;;;18.83;5.07;;;;;;;29.96;37.08;100896.34;4958334;28;20057;-79
2023/07/28 11:31:45;;;;;;;15.57;4.90;;;;;;;30.18;36.28;100909.16;4944007;28;20193;-79
2023/07/28 11:34:18;;;;;;;15.32;5.07;;;;;;;30.36;35.32;100913.44;4948294;28;20110;-79